Time,TemperatureF,DewpointF,PressureIn,WindDirection,WindDirectionDegrees,WindSpeedMPH,WindSpeedGustMPH,Humidity,HourlyPrecipIn,Conditions,Clouds,dailyrainin,SoftwareType,DateUTC
2013-06-18 00:08:00,79.6,72.0,29.89,SE,146,4.4,7.7,77,0.00,,,0.00,WUHU216DAVISVP2,2013-06-18 05:08:00,
2013-06-18 00:38:00,78.8,72.7,29.91,SE,146,1.1,8.8,81,0.00,,,0.00,WUHU216DAVISVP2,2013-06-18 05:38:00,
2013-06-18 01:08:00,78.6,72.5,29.92,SSE,147,1.1,4.4,81,0.00,,,0.00,WUHU216DAVISVP2,2013-06-18 06:08:00,
2013-06-18 01:38:00,78.3,72.9,29.91,ESE,116,3.3,9.0,83,0.00,,,0.00,WUHU216DAVISVP2,2013-06-18 06:38:00,
2013-06-18 02:08:00,77.8,73.1,29.91,SE,140,1.1,7.7,85,0.00,,,0.00,WUHU216DAVISVP2,2013-06-18 07:08:00,
2013-06-18 02:38:00,77.1,73.1,29.90,SSE,159,1.1,6.6,87,0.00,,,0.00,WUHU216DAVISVP2,2013-06-18 07:38:00,
2013-06-18 03:08:00,76.7,73.3,29.90,South,180,0.0,6.6,89,0.00,,,0.00,WUHU216DAVISVP2,2013-06-18 08:08:00,
2013-06-18 03:38:00,76.4,73.3,29.90,SSE,147,1.1,7.0,90,0.00,,,0.00,WUHU216DAVISVP2,2013-06-18 08:38:00,
2013-06-18 04:08:00,76.2,73.5,29.91,South,172,0.0,2.0,91,0.00,,,0.00,WUHU216DAVISVP2,2013-06-18 09:08:00,
2013-06-18 04:38:00,76.3,73.6,29.90,South,176,0.0,4.4,91,0.00,,,0.00,WUHU216DAVISVP2,2013-06-18 09:38:00,
2013-06-18 05:08:00,76.0,73.6,29.90,SSE,162,0.0,4.0,92,0.00,,,0.00,WUHU216DAVISVP2,2013-06-18 10:08:00,
2013-06-18 05:38:00,75.6,73.2,29.91,South,180,0.0,3.3,92,0.00,,,0.00,WUHU216DAVISVP2,2013-06-18 10:38:00,
2013-06-18 06:08:00,75.4,73.3,29.91,South,182,0.0,2.2,93,0.00,,,0.00,WUHU216DAVISVP2,2013-06-18 11:08:00,
2013-06-18 06:38:00,75.5,73.4,29.92,SSW,192,0.0,2.0,93,0.00,,,0.00,WUHU216DAVISVP2,2013-06-18 11:38:00,
2013-06-18 07:08:00,76.0,73.6,29.94,NNW,335,0.0,4.0,92,0.00,,,0.00,WUHU216DAVISVP2,2013-06-18 12:08:00,
2013-06-18 07:38:00,76.6,74.2,29.93,WNW,302,0.0,2.0,92,0.00,,,0.00,WUHU216DAVISVP2,2013-06-18 12:38:00,
2013-06-18 08:08:00,78.2,73.8,29.94,NNE,28,1.1,4.4,86,0.00,,,0.00,WUHU216DAVISVP2,2013-06-18 13:08:00,
2013-06-18 08:38:00,78.8,73.7,29.94,NE,39,0.0,1.1,84,0.00,,,0.00,WUHU216DAVISVP2,2013-06-18 13:38:00,
2013-06-18 09:08:00,78.6,73.5,29.94,SSE,150,0.0,7.7,84,0.00,,,0.00,WUHU216DAVISVP2,2013-06-18 14:08:00,
2013-06-18 09:38:00,79.6,73.8,29.94,SSE,160,0.0,6.0,82,0.00,,,0.00,WUHU216DAVISVP2,2013-06-18 14:38:00,
2013-06-18 10:08:00,80.3,73.4,29.96,South,170,0.0,5.0,79,0.00,,,0.00,WUHU216DAVISVP2,2013-06-18 15:08:00,
2013-06-18 10:38:00,81.8,73.4,29.96,South,172,1.1,5.5,75,0.00,,,0.00,WUHU216DAVISVP2,2013-06-18 15:38:00,
2013-06-18 11:08:00,84.0,72.7,29.95,South,191,0.0,5.5,68,0.00,,,0.00,WUHU216DAVISVP2,2013-06-18 16:08:00,
2013-06-18 11:38:00,85.5,72.8,29.95,SE,138,0.0,7.7,65,0.00,,,0.00,WUHU216DAVISVP2,2013-06-18 16:38:00,
2013-06-18 12:08:00,86.6,72.9,29.95,SE,128,1.1,8.8,63,0.00,,,0.00,WUHU216DAVISVP2,2013-06-18 17:08:00,
2013-06-18 12:38:00,87.1,72.0,29.94,South,191,7.7,10.0,60,0.00,,,0.00,WUHU216DAVISVP2,2013-06-18 17:38:00,
2013-06-18 13:08:00,88.0,71.8,29.93,SSE,149,6.6,9.9,58,0.00,,,0.00,WUHU216DAVISVP2,2013-06-18 18:08:00,
2013-06-18 13:38:00,89.2,72.4,29.92,SSE,166,2.2,8.8,57,0.00,,,0.00,WUHU216DAVISVP2,2013-06-18 18:38:00,
2013-06-18 14:08:00,90.2,72.3,29.91,South,184,0.0,9.9,55,0.00,,,0.00,WUHU216DAVISVP2,2013-06-18 19:08:00,
2013-06-18 14:38:00,91.6,72.5,29.90,South,170,1.1,7.7,53,0.00,,,0.00,WUHU216DAVISVP2,2013-06-18 19:38:00,
2013-06-18 15:08:00,91.9,72.2,29.89,SSE,152,4.4,8.8,52,0.00,,,0.00,WUHU216DAVISVP2,2013-06-18 20:08:00,
2013-06-18 15:38:00,92.8,73.6,29.88,SSE,159,0.0,7.7,53,0.00,,,0.00,WUHU216DAVISVP2,2013-06-18 20:38:00,
2013-06-18 16:08:00,93.5,70.6,29.87,WSW,244,1.1,7.7,47,0.00,,,0.00,WUHU216DAVISVP2,2013-06-18 21:08:00,
2013-06-18 16:38:00,94.0,69.7,29.86,SE,143,3.3,9.9,45,0.00,,,0.00,WUHU216DAVISVP2,2013-06-18 21:38:00,
2013-06-18 17:08:00,93.8,68.9,29.85,SSE,160,2.2,5.5,44,0.00,,,0.00,WUHU216DAVISVP2,2013-06-18 22:08:00,
2013-06-18 17:38:00,93.7,71.4,29.84,ESE,114,1.1,6.0,48,0.00,,,0.00,WUHU216DAVISVP2,2013-06-18 22:38:00,
2013-06-18 18:08:00,93.4,71.8,29.83,SE,139,2.2,4.0,49,0.00,,,0.00,WUHU216DAVISVP2,2013-06-18 23:08:00,
2013-06-18 18:38:00,92.5,69.7,29.82,SE,143,1.1,6.6,47,0.00,,,0.00,WUHU216DAVISVP2,2013-06-18 23:38:00,
2013-06-18 19:08:00,92.5,70.3,29.82,SSE,162,0.0,3.0,48,0.00,,,0.00,WUHU216DAVISVP2,2013-06-19 00:08:00,
2013-06-18 19:39:00,91.1,72.0,29.82,SSE,168,0.0,1.1,53,0.00,,,0.00,WUHU216DAVISVP2,2013-06-19 00:39:00,
2013-06-18 20:09:00,90.1,72.2,29.83,SSE,168,0.0,0.0,55,0.00,,,0.00,WUHU216DAVISVP2,2013-06-19 01:09:00,
2013-06-18 20:39:00,87.6,74.3,29.83,SSE,168,0.0,0.0,64,0.00,,,0.00,WUHU216DAVISVP2,2013-06-19 01:39:00,
2013-06-18 21:09:00,84.4,73.1,29.83,SSE,168,0.0,0.0,68,0.00,,,0.00,WUHU216DAVISVP2,2013-06-19 02:09:00,
2013-06-18 21:39:00,82.4,71.6,29.84,SSE,168,0.0,0.0,69,0.00,,,0.00,WUHU216DAVISVP2,2013-06-19 02:39:00,
2013-06-18 22:09:00,81.7,71.3,29.85,SSE,168,0.0,0.0,70,0.00,,,0.00,WUHU216DAVISVP2,2013-06-19 03:09:00,
2013-06-18 22:39:00,82.4,72.0,29.87,SE,144,0.0,5.0,70,0.00,,,0.00,WUHU216DAVISVP2,2013-06-19 03:39:00,
2013-06-18 23:09:00,81.9,73.1,29.87,South,170,0.0,4.4,74,0.00,,,0.00,WUHU216DAVISVP2,2013-06-19 04:09:00,
2013-06-18 23:39:00,81.1,73.8,29.88,SSE,149,0.0,3.0,78,0.00,,,0.00,WUHU216DAVISVP2,2013-06-19 04:39:00,